sensor_id;sensor_type;location;lat;lon;timestamp;temperature;humidity
6210;DHT22;3138;52.550;13.148;2022-12-18T00:00:44;-5.30;99.90
6210;DHT22;3138;52.550;13.148;2022-12-18T00:03:12;-5.50;99.90
6210;DHT22;3138;52.550;13.148;2022-12-18T00:05:46;-5.40;99.90
6210;DHT22;3138;52.550;13.148;2022-12-18T00:08:13;-5.50;99.90
6210;DHT22;3138;52.550;13.148;2022-12-18T00:10:41;-5.50;99.90
6210;DHT22;3138;52.550;13.148;2022-12-18T00:13:08;-5.50;99.90
6210;DHT22;3138;52.550;13.148;2022-12-18T00:15:36;-5.50;99.90
6210;DHT22;3138;52.550;13.148;2022-12-18T00:18:03;-5.50;99.90
6210;DHT22;3138;52.550;13.148;2022-12-18T00:20:31;-5.50;99.90
6210;DHT22;3138;52.550;13.148;2022-12-18T00:22:58;-5.50;99.90
6210;DHT22;3138;52.550;13.148;2022-12-18T00:25:25;-5.60;99.90
6210;DHT22;3138;52.550;13.148;2022-12-18T00:27:53;-5.50;99.90
6210;DHT22;3138;52.550;13.148;2022-12-18T00:30:19;-5.40;99.90
6210;DHT22;3138;52.550;13.148;2022-12-18T00:32:46;-5.40;99.90
6210;DHT22;3138;52.550;13.148;2022-12-18T00:35:13;-5.40;99.90
6210;DHT22;3138;52.550;13.148;2022-12-18T00:37:40;-5.40;99.90
6210;DHT22;3138;52.550;13.148;2022-12-18T00:40:08;-5.40;99.90
6210;DHT22;3138;52.550;13.148;2022-12-18T00:42:35;-5.40;99.90
6210;DHT22;3138;52.550;13.148;2022-12-18T00:45:24;-5.50;99.90
6210;DHT22;3138;52.550;13.148;2022-12-18T00:47:51;-5.60;99.90
6210;DHT22;3138;52.550;13.148;2022-12-18T00:50:18;-5.40;99.90
6210;DHT22;3138;52.550;13.148;2022-12-18T00:52:45;-5.40;99.90
6210;DHT22;3138;52.550;13.148;2022-12-18T00:55:12;-5.50;99.90
6210;DHT22;3138;52.550;13.148;2022-12-18T00:57:39;-5.50;99.90
6210;DHT22;3138;52.550;13.148;2022-12-18T01:00:08;-5.50;99.90
6210;DHT22;3138;52.550;13.148;2022-12-18T01:02:36;-5.50;99.90
6210;DHT22;3138;52.550;13.148;2022-12-18T01:05:03;-5.70;99.90
6210;DHT22;3138;52.550;13.148;2022-12-18T01:07:30;-5.70;99.90
6210;DHT22;3138;52.550;13.148;2022-12-18T01:09:57;-5.70;99.90
6210;DHT22;3138;52.550;13.148;2022-12-18T01:12:24;-5.60;99.90
6210;DHT22;3138;52.550;13.148;2022-12-18T01:14:51;-5.60;99.90
6210;DHT22;3138;52.550;13.148;2022-12-18T01:17:18;-5.70;99.90
6210;DHT22;3138;52.550;13.148;2022-12-18T01:19:46;-5.70;99.90
6210;DHT22;3138;52.550;13.148;2022-12-18T01:22:13;-5.70;99.90
6210;DHT22;3138;52.550;13.148;2022-12-18T01:24:39;-5.70;99.90
6210;DHT22;3138;52.550;13.148;2022-12-18T01:27:06;-5.70;99.90
6210;DHT22;3138;52.550;13.148;2022-12-18T01:29:33;-5.70;99.90
6210;DHT22;3138;52.550;13.148;2022-12-18T01:32:00;-5.80;99.90
6210;DHT22;3138;52.550;13.148;2022-12-18T01:34:27;-5.80;99.90
6210;DHT22;3138;52.550;13.148;2022-12-18T01:36:55;-5.80;99.90
6210;DHT22;3138;52.550;13.148;2022-12-18T01:39:22;-5.80;99.90
6210;DHT22;3138;52.550;13.148;2022-12-18T01:41:49;-5.80;99.90
6210;DHT22;3138;52.550;13.148;2022-12-18T01:45:03;-5.80;99.90
6210;DHT22;3138;52.550;13.148;2022-12-18T01:47:35;-5.80;99.90
6210;DHT22;3138;52.550;13.148;2022-12-18T01:50:07;-5.70;99.90
6210;DHT22;3138;52.550;13.148;2022-12-18T01:52:36;-5.70;99.90
6210;DHT22;3138;52.550;13.148;2022-12-18T01:55:05;-5.80;99.90
6210;DHT22;3138;52.550;13.148;2022-12-18T01:57:32;-5.70;99.90
6210;DHT22;3138;52.550;13.148;2022-12-18T02:00:03;-5.80;99.90
6210;DHT22;3138;52.550;13.148;2022-12-18T02:02:30;-5.70;99.90
6210;DHT22;3138;52.550;13.148;2022-12-18T02:04:58;-5.80;99.90
6210;DHT22;3138;52.550;13.148;2022-12-18T02:07:30;-5.80;99.90
6210;DHT22;3138;52.550;13.148;2022-12-18T02:10:02;-5.80;99.90
6210;DHT22;3138;52.550;13.148;2022-12-18T02:12:38;-5.70;99.90
6210;DHT22;3138;52.550;13.148;2022-12-18T02:15:11;-5.70;99.90
6210;DHT22;3138;52.550;13.148;2022-12-18T02:17:43;-5.70;99.90
6210;DHT22;3138;52.550;13.148;2022-12-18T02:20:16;-5.70;99.90
6210;DHT22;3138;52.550;13.148;2022-12-18T02:22:54;-5.70;99.90
6210;DHT22;3138;52.550;13.148;2022-12-18T02:25:40;-5.80;99.90
6210;DHT22;3138;52.550;13.148;2022-12-18T02:28:12;-5.70;99.90
6210;DHT22;3138;52.550;13.148;2022-12-18T02:30:41;-5.70;99.90
6210;DHT22;3138;52.550;13.148;2022-12-18T02:33:09;-5.70;99.90
6210;DHT22;3138;52.550;13.148;2022-12-18T02:35:39;-5.70;99.90
6210;DHT22;3138;52.550;13.148;2022-12-18T02:38:07;-5.80;99.90
6210;DHT22;3138;52.550;13.148;2022-12-18T02:40:35;-5.80;99.90
6210;DHT22;3138;52.550;13.148;2022-12-18T02:43:06;-5.70;99.90
6210;DHT22;3138;52.550;13.148;2022-12-18T02:45:34;-5.80;99.90
6210;DHT22;3138;52.550;13.148;2022-12-18T02:48:01;-5.80;99.90
6210;DHT22;3138;52.550;13.148;2022-12-18T02:50:35;-5.70;99.90
6210;DHT22;3138;52.550;13.148;2022-12-18T02:53:10;-5.70;99.90
6210;DHT22;3138;52.550;13.148;2022-12-18T02:55:48;-5.70;99.90
6210;DHT22;3138;52.550;13.148;2022-12-18T02:58:20;-5.80;99.90
6210;DHT22;3138;52.550;13.148;2022-12-18T03:00:57;-5.80;99.90
6210;DHT22;3138;52.550;13.148;2022-12-18T03:03:29;-5.80;99.90
6210;DHT22;3138;52.550;13.148;2022-12-18T03:06:00;-5.80;99.90
6210;DHT22;3138;52.550;13.148;2022-12-18T03:08:31;-5.80;99.90
6210;DHT22;3138;52.550;13.148;2022-12-18T03:11:02;-5.70;99.90
6210;DHT22;3138;52.550;13.148;2022-12-18T03:13:32;-5.70;99.90
6210;DHT22;3138;52.550;13.148;2022-12-18T03:16:02;-5.70;99.90
6210;DHT22;3138;52.550;13.148;2022-12-18T03:18:35;-5.80;99.90
6210;DHT22;3138;52.550;13.148;2022-12-18T03:21:05;-5.80;99.90
6210;DHT22;3138;52.550;13.148;2022-12-18T03:23:36;-5.70;99.90
6210;DHT22;3138;52.550;13.148;2022-12-18T03:26:09;-5.70;99.90
6210;DHT22;3138;52.550;13.148;2022-12-18T03:28:39;-5.70;99.90
6210;DHT22;3138;52.550;13.148;2022-12-18T03:31:11;-5.60;99.90
6210;DHT22;3138;52.550;13.148;2022-12-18T03:33:44;-5.70;99.90
6210;DHT22;3138;52.550;13.148;2022-12-18T03:36:12;-5.60;99.90
6210;DHT22;3138;52.550;13.148;2022-12-18T03:38:40;-5.70;99.90
6210;DHT22;3138;52.550;13.148;2022-12-18T03:41:14;-5.70;99.90
6210;DHT22;3138;52.550;13.148;2022-12-18T03:43:48;-5.70;99.90
6210;DHT22;3138;52.550;13.148;2022-12-18T03:46:24;-5.80;99.90
6210;DHT22;3138;52.550;13.148;2022-12-18T03:48:59;-5.80;99.90
6210;DHT22;3138;52.550;13.148;2022-12-18T03:51:35;-5.80;99.90
6210;DHT22;3138;52.550;13.148;2022-12-18T03:54:05;-5.80;99.90
6210;DHT22;3138;52.550;13.148;2022-12-18T03:56:36;-5.80;99.90
6210;DHT22;3138;52.550;13.148;2022-12-18T03:59:06;-5.80;99.90
6210;DHT22;3138;52.550;13.148;2022-12-18T04:01:38;-5.90;99.90
6210;DHT22;3138;52.550;13.148;2022-12-18T04:04:07;-5.90;99.90
6210;DHT22;3138;52.550;13.148;2022-12-18T04:06:35;-5.90;99.90
6210;DHT22;3138;52.550;13.148;2022-12-18T04:09:03;-5.90;99.90
6210;DHT22;3138;52.550;13.148;2022-12-18T04:11:30;-5.80;99.90
6210;DHT22;3138;52.550;13.148;2022-12-18T04:13:58;-5.80;99.90
6210;DHT22;3138;52.550;13.148;2022-12-18T04:16:25;-5.80;99.90
6210;DHT22;3138;52.550;13.148;2022-12-18T04:18:54;-5.70;99.90
6210;DHT22;3138;52.550;13.148;2022-12-18T04:21:21;-5.80;99.90
6210;DHT22;3138;52.550;13.148;2022-12-18T04:23:48;-5.80;99.90
6210;DHT22;3138;52.550;13.148;2022-12-18T04:26:15;-5.90;99.90
6210;DHT22;3138;52.550;13.148;2022-12-18T04:28:41;-5.90;99.90
6210;DHT22;3138;52.550;13.148;2022-12-18T04:31:08;-5.80;99.90
6210;DHT22;3138;52.550;13.148;2022-12-18T04:33:35;-5.80;99.90
6210;DHT22;3138;52.550;13.148;2022-12-18T04:36:04;-5.90;99.90
6210;DHT22;3138;52.550;13.148;2022-12-18T04:38:31;-5.80;99.90
6210;DHT22;3138;52.550;13.148;2022-12-18T04:40:58;-5.80;99.90
6210;DHT22;3138;52.550;13.148;2022-12-18T04:43:25;-5.80;99.90
6210;DHT22;3138;52.550;13.148;2022-12-18T04:45:52;-5.80;99.90
6210;DHT22;3138;52.550;13.148;2022-12-18T04:48:20;-5.70;99.90
6210;DHT22;3138;52.550;13.148;2022-12-18T04:50:46;-5.70;99.90
6210;DHT22;3138;52.550;13.148;2022-12-18T04:53:15;-5.80;99.90
6210;DHT22;3138;52.550;13.148;2022-12-18T04:55:41;-5.80;99.90
6210;DHT22;3138;52.550;13.148;2022-12-18T04:58:08;-5.80;99.90
6210;DHT22;3138;52.550;13.148;2022-12-18T05:00:35;-5.80;99.90
6210;DHT22;3138;52.550;13.148;2022-12-18T05:03:02;-5.80;99.90
6210;DHT22;3138;52.550;13.148;2022-12-18T05:05:29;-5.80;99.90
6210;DHT22;3138;52.550;13.148;2022-12-18T05:07:56;-5.70;99.90
6210;DHT22;3138;52.550;13.148;2022-12-18T05:10:24;-5.80;99.90
6210;DHT22;3138;52.550;13.148;2022-12-18T05:12:51;-5.80;99.90
6210;DHT22;3138;52.550;13.148;2022-12-18T05:15:28;-5.80;99.90
6210;DHT22;3138;52.550;13.148;2022-12-18T05:17:56;-5.80;99.90
6210;DHT22;3138;52.550;13.148;2022-12-18T05:20:23;-5.70;99.90
6210;DHT22;3138;52.550;13.148;2022-12-18T05:22:50;-5.70;99.90
6210;DHT22;3138;52.550;13.148;2022-12-18T05:25:17;-5.70;99.90
6210;DHT22;3138;52.550;13.148;2022-12-18T05:27:45;-5.80;99.90
6210;DHT22;3138;52.550;13.148;2022-12-18T05:30:13;-5.90;99.90
6210;DHT22;3138;52.550;13.148;2022-12-18T05:32:40;-5.90;99.90
6210;DHT22;3138;52.550;13.148;2022-12-18T05:35:09;-5.70;99.90
6210;DHT22;3138;52.550;13.148;2022-12-18T05:37:36;-5.70;99.90
6210;DHT22;3138;52.550;13.148;2022-12-18T05:40:04;-5.70;99.90
6210;DHT22;3138;52.550;13.148;2022-12-18T05:42:31;-5.70;99.90
6210;DHT22;3138;52.550;13.148;2022-12-18T05:44:59;-5.70;99.90
6210;DHT22;3138;52.550;13.148;2022-12-18T05:47:26;-5.70;99.90
6210;DHT22;3138;52.550;13.148;2022-12-18T05:49:54;-5.70;99.90
6210;DHT22;3138;52.550;13.148;2022-12-18T05:52:21;-5.60;99.90
6210;DHT22;3138;52.550;13.148;2022-12-18T05:54:47;-5.70;99.90
6210;DHT22;3138;52.550;13.148;2022-12-18T05:57:14;-5.90;99.90
6210;DHT22;3138;52.550;13.148;2022-12-18T05:59:41;-5.90;99.90
6210;DHT22;3138;52.550;13.148;2022-12-18T06:02:09;-5.90;99.90
6210;DHT22;3138;52.550;13.148;2022-12-18T06:04:36;-5.80;99.90
6210;DHT22;3138;52.550;13.148;2022-12-18T06:07:03;-5.70;99.90
6210;DHT22;3138;52.550;13.148;2022-12-18T06:09:30;-5.80;99.90
6210;DHT22;3138;52.550;13.148;2022-12-18T06:11:57;-5.80;99.90
6210;DHT22;3138;52.550;13.148;2022-12-18T06:14:24;-5.70;99.90
6210;DHT22;3138;52.550;13.148;2022-12-18T06:16:51;-5.70;99.90
6210;DHT22;3138;52.550;13.148;2022-12-18T06:19:19;-5.80;99.90
6210;DHT22;3138;52.550;13.148;2022-12-18T06:21:46;-5.80;99.90
6210;DHT22;3138;52.550;13.148;2022-12-18T06:24:14;-5.90;99.90
6210;DHT22;3138;52.550;13.148;2022-12-18T06:26:41;-5.90;99.90
6210;DHT22;3138;52.550;13.148;2022-12-18T06:29:08;-5.90;99.90
6210;DHT22;3138;52.550;13.148;2022-12-18T06:31:35;-5.80;99.90
6210;DHT22;3138;52.550;13.148;2022-12-18T06:34:03;-5.90;99.90
6210;DHT22;3138;52.550;13.148;2022-12-18T06:36:32;-5.90;99.90
6210;DHT22;3138;52.550;13.148;2022-12-18T06:38:58;-5.90;99.90
6210;DHT22;3138;52.550;13.148;2022-12-18T06:41:25;-5.90;99.90
6210;DHT22;3138;52.550;13.148;2022-12-18T06:43:52;-5.80;99.90
6210;DHT22;3138;52.550;13.148;2022-12-18T06:46:19;-5.80;99.90
6210;DHT22;3138;52.550;13.148;2022-12-18T06:48:48;-5.80;99.90
6210;DHT22;3138;52.550;13.148;2022-12-18T06:51:17;-5.80;99.90
6210;DHT22;3138;52.550;13.148;2022-12-18T06:53:45;-5.80;99.90
6210;DHT22;3138;52.550;13.148;2022-12-18T06:56:12;-5.80;99.90
6210;DHT22;3138;52.550;13.148;2022-12-18T06:58:39;-5.80;99.90
6210;DHT22;3138;52.550;13.148;2022-12-18T07:01:09;-5.70;99.90
6210;DHT22;3138;52.550;13.148;2022-12-18T07:03:36;-5.80;99.90
6210;DHT22;3138;52.550;13.148;2022-12-18T07:06:03;-5.90;99.90
6210;DHT22;3138;52.550;13.148;2022-12-18T07:08:31;-5.90;99.90
6210;DHT22;3138;52.550;13.148;2022-12-18T07:11:02;-6.00;99.90
6210;DHT22;3138;52.550;13.148;2022-12-18T07:13:29;-6.00;99.90
6210;DHT22;3138;52.550;13.148;2022-12-18T07:16:03;-5.90;99.90
6210;DHT22;3138;52.550;13.148;2022-12-18T07:18:30;-6.00;99.90
6210;DHT22;3138;52.550;13.148;2022-12-18T07:20:57;-6.10;99.90
6210;DHT22;3138;52.550;13.148;2022-12-18T07:23:23;-6.00;99.90
6210;DHT22;3138;52.550;13.148;2022-12-18T07:25:50;-6.10;99.90
6210;DHT22;3138;52.550;13.148;2022-12-18T07:28:18;-6.10;99.90
6210;DHT22;3138;52.550;13.148;2022-12-18T07:30:45;-6.10;99.90
6210;DHT22;3138;52.550;13.148;2022-12-18T07:33:12;-6.10;99.90
6210;DHT22;3138;52.550;13.148;2022-12-18T07:35:39;-6.00;99.90
6210;DHT22;3138;52.550;13.148;2022-12-18T07:38:06;-5.90;99.90
6210;DHT22;3138;52.550;13.148;2022-12-18T07:40:33;-5.90;99.90
6210;DHT22;3138;52.550;13.148;2022-12-18T07:42:59;-5.90;99.90
6210;DHT22;3138;52.550;13.148;2022-12-18T07:45:31;-5.90;99.90
6210;DHT22;3138;52.550;13.148;2022-12-18T07:47:58;-5.90;99.90
6210;DHT22;3138;52.550;13.148;2022-12-18T07:50:24;-5.90;99.90
6210;DHT22;3138;52.550;13.148;2022-12-18T07:52:51;-5.90;99.90
6210;DHT22;3138;52.550;13.148;2022-12-18T07:55:18;-5.90;99.90
6210;DHT22;3138;52.550;13.148;2022-12-18T07:57:45;-5.80;99.90
6210;DHT22;3138;52.550;13.148;2022-12-18T08:00:12;-5.70;99.90
6210;DHT22;3138;52.550;13.148;2022-12-18T08:02:41;-5.60;99.90
6210;DHT22;3138;52.550;13.148;2022-12-18T08:05:08;-5.60;99.90
6210;DHT22;3138;52.550;13.148;2022-12-18T08:07:38;-5.70;99.90
6210;DHT22;3138;52.550;13.148;2022-12-18T08:10:06;-5.60;99.90
6210;DHT22;3138;52.550;13.148;2022-12-18T08:12:33;-5.60;99.90
6210;DHT22;3138;52.550;13.148;2022-12-18T08:14:59;-5.60;99.90
6210;DHT22;3138;52.550;13.148;2022-12-18T08:17:26;-5.60;99.90
6210;DHT22;3138;52.550;13.148;2022-12-18T08:19:55;-5.50;99.90
6210;DHT22;3138;52.550;13.148;2022-12-18T08:22:23;-5.50;99.90
6210;DHT22;3138;52.550;13.148;2022-12-18T08:24:50;-5.50;99.90
6210;DHT22;3138;52.550;13.148;2022-12-18T08:27:17;-5.40;99.90
6210;DHT22;3138;52.550;13.148;2022-12-18T08:29:43;-5.40;99.90
6210;DHT22;3138;52.550;13.148;2022-12-18T08:32:10;-5.40;99.90
6210;DHT22;3138;52.550;13.148;2022-12-18T08:34:37;-5.50;99.90
6210;DHT22;3138;52.550;13.148;2022-12-18T08:37:05;-5.50;99.90
6210;DHT22;3138;52.550;13.148;2022-12-18T08:39:32;-5.40;99.90
6210;DHT22;3138;52.550;13.148;2022-12-18T08:42:00;-5.30;99.90
6210;DHT22;3138;52.550;13.148;2022-12-18T08:44:59;-5.20;99.90
6210;DHT22;3138;52.550;13.148;2022-12-18T08:47:25;-5.30;99.90
6210;DHT22;3138;52.550;13.148;2022-12-18T08:49:52;-5.30;99.90
6210;DHT22;3138;52.550;13.148;2022-12-18T08:52:20;-5.20;99.90
6210;DHT22;3138;52.550;13.148;2022-12-18T08:54:47;-5.20;99.90
6210;DHT22;3138;52.550;13.148;2022-12-18T08:57:14;-5.00;99.90
6210;DHT22;3138;52.550;13.148;2022-12-18T08:59:41;-5.10;99.90
6210;DHT22;3138;52.550;13.148;2022-12-18T09:02:09;-5.10;99.90
6210;DHT22;3138;52.550;13.148;2022-12-18T09:04:36;-5.10;99.90
6210;DHT22;3138;52.550;13.148;2022-12-18T09:07:05;-5.20;99.90
6210;DHT22;3138;52.550;13.148;2022-12-18T09:09:33;-5.10;99.90
6210;DHT22;3138;52.550;13.148;2022-12-18T09:12:00;-5.00;99.90
6210;DHT22;3138;52.550;13.148;2022-12-18T09:14:27;-4.90;99.90
6210;DHT22;3138;52.550;13.148;2022-12-18T09:16:53;-5.00;99.90
6210;DHT22;3138;52.550;13.148;2022-12-18T09:19:20;-5.10;99.90
6210;DHT22;3138;52.550;13.148;2022-12-18T09:21:47;-5.10;99.90
6210;DHT22;3138;52.550;13.148;2022-12-18T09:24:14;-5.10;99.90
6210;DHT22;3138;52.550;13.148;2022-12-18T09:26:45;-5.00;99.90
6210;DHT22;3138;52.550;13.148;2022-12-18T09:29:12;-5.00;99.90
6210;DHT22;3138;52.550;13.148;2022-12-18T09:31:40;-5.00;99.90
6210;DHT22;3138;52.550;13.148;2022-12-18T09:34:06;-4.90;99.90
6210;DHT22;3138;52.550;13.148;2022-12-18T09:36:33;-4.80;99.90
6210;DHT22;3138;52.550;13.148;2022-12-18T09:39:00;-4.80;99.90
6210;DHT22;3138;52.550;13.148;2022-12-18T09:41:43;-4.80;99.90
6210;DHT22;3138;52.550;13.148;2022-12-18T09:44:17;-4.70;99.90
6210;DHT22;3138;52.550;13.148;2022-12-18T09:46:48;-4.60;99.90
6210;DHT22;3138;52.550;13.148;2022-12-18T09:49:18;-4.60;99.90
6210;DHT22;3138;52.550;13.148;2022-12-18T09:51:50;-4.50;99.90
6210;DHT22;3138;52.550;13.148;2022-12-18T09:54:22;-4.50;99.90
6210;DHT22;3138;52.550;13.148;2022-12-18T09:56:50;-4.50;99.90
6210;DHT22;3138;52.550;13.148;2022-12-18T09:59:21;-4.40;99.90
6210;DHT22;3138;52.550;13.148;2022-12-18T10:01:49;-4.50;99.90
6210;DHT22;3138;52.550;13.148;2022-12-18T10:04:16;-4.50;99.90
6210;DHT22;3138;52.550;13.148;2022-12-18T10:06:48;-4.40;99.90
6210;DHT22;3138;52.550;13.148;2022-12-18T10:09:24;-4.40;99.90
6210;DHT22;3138;52.550;13.148;2022-12-18T10:12:01;-4.40;99.90
6210;DHT22;3138;52.550;13.148;2022-12-18T10:14:36;-4.30;99.90
6210;DHT22;3138;52.550;13.148;2022-12-18T10:17:11;-4.30;99.90
6210;DHT22;3138;52.550;13.148;2022-12-18T10:19:43;-4.30;99.90
6210;DHT22;3138;52.550;13.148;2022-12-18T10:22:22;-4.20;99.90
6210;DHT22;3138;52.550;13.148;2022-12-18T10:24:57;-4.30;99.90
6210;DHT22;3138;52.550;13.148;2022-12-18T10:27:27;-4.20;99.90
6210;DHT22;3138;52.550;13.148;2022-12-18T10:29:55;-4.10;99.90
6210;DHT22;3138;52.550;13.148;2022-12-18T10:32:23;-4.20;99.90
6210;DHT22;3138;52.550;13.148;2022-12-18T10:34:52;-4.20;99.90
6210;DHT22;3138;52.550;13.148;2022-12-18T10:37:21;-4.10;99.90
6210;DHT22;3138;52.550;13.148;2022-12-18T10:40:07;-4.00;99.90
6210;DHT22;3138;52.550;13.148;2022-12-18T10:42:36;-4.00;99.90
6210;DHT22;3138;52.550;13.148;2022-12-18T10:45:11;-4.00;99.90
6210;DHT22;3138;52.550;13.148;2022-12-18T10:47:43;-4.00;99.90
6210;DHT22;3138;52.550;13.148;2022-12-18T10:50:20;-4.00;99.90
6210;DHT22;3138;52.550;13.148;2022-12-18T10:52:58;-4.00;99.90
6210;DHT22;3138;52.550;13.148;2022-12-18T10:55:30;-3.90;99.90
6210;DHT22;3138;52.550;13.148;2022-12-18T10:58:13;-3.90;99.90
6210;DHT22;3138;52.550;13.148;2022-12-18T11:00:42;-3.90;99.90
6210;DHT22;3138;52.550;13.148;2022-12-18T11:03:30;-4.00;99.90
6210;DHT22;3138;52.550;13.148;2022-12-18T11:06:02;-3.90;99.90
6210;DHT22;3138;52.550;13.148;2022-12-18T11:08:29;-4.00;99.90
6210;DHT22;3138;52.550;13.148;2022-12-18T11:10:56;-4.00;99.90
6210;DHT22;3138;52.550;13.148;2022-12-18T11:13:27;-4.00;99.90
6210;DHT22;3138;52.550;13.148;2022-12-18T11:15:55;-4.00;99.90
6210;DHT22;3138;52.550;13.148;2022-12-18T11:18:25;-3.90;99.90
6210;DHT22;3138;52.550;13.148;2022-12-18T11:20:54;-4.00;99.90
6210;DHT22;3138;52.550;13.148;2022-12-18T11:23:23;-3.90;99.90
6210;DHT22;3138;52.550;13.148;2022-12-18T11:25:56;-4.00;99.90
6210;DHT22;3138;52.550;13.148;2022-12-18T11:28:34;-4.00;99.90
6210;DHT22;3138;52.550;13.148;2022-12-18T11:31:20;-4.10;99.90
6210;DHT22;3138;52.550;13.148;2022-12-18T11:33:59;-4.00;99.90
6210;DHT22;3138;52.550;13.148;2022-12-18T11:36:30;-4.10;99.90
6210;DHT22;3138;52.550;13.148;2022-12-18T11:39:01;-4.00;99.90
6210;DHT22;3138;52.550;13.148;2022-12-18T11:41:33;-4.00;99.90
6210;DHT22;3138;52.550;13.148;2022-12-18T11:44:24;-4.00;99.90
6210;DHT22;3138;52.550;13.148;2022-12-18T11:46:56;-3.90;99.90
6210;DHT22;3138;52.550;13.148;2022-12-18T11:49:28;-4.00;99.90
6210;DHT22;3138;52.550;13.148;2022-12-18T11:52:00;-3.90;99.90
6210;DHT22;3138;52.550;13.148;2022-12-18T11:54:28;-3.70;99.90
6210;DHT22;3138;52.550;13.148;2022-12-18T11:57:01;-3.70;99.90
6210;DHT22;3138;52.550;13.148;2022-12-18T11:59:36;-3.60;99.90
6210;DHT22;3138;52.550;13.148;2022-12-18T12:02:35;-3.50;99.90
6210;DHT22;3138;52.550;13.148;2022-12-18T12:05:18;-3.50;99.90
6210;DHT22;3138;52.550;13.148;2022-12-18T12:07:52;-3.50;99.90
6210;DHT22;3138;52.550;13.148;2022-12-18T12:10:29;-3.60;99.90
6210;DHT22;3138;52.550;13.148;2022-12-18T12:13:10;-3.60;99.90
6210;DHT22;3138;52.550;13.148;2022-12-18T12:15:50;-3.50;99.90
6210;DHT22;3138;52.550;13.148;2022-12-18T12:18:31;-3.50;99.90
6210;DHT22;3138;52.550;13.148;2022-12-18T12:21:07;-3.50;99.90
6210;DHT22;3138;52.550;13.148;2022-12-18T12:23:41;-3.40;99.90
6210;DHT22;3138;52.550;13.148;2022-12-18T12:26:12;-3.40;99.90
6210;DHT22;3138;52.550;13.148;2022-12-18T12:29:00;-3.30;99.90
6210;DHT22;3138;52.550;13.148;2022-12-18T12:31:40;-3.30;99.90
6210;DHT22;3138;52.550;13.148;2022-12-18T12:34:17;-3.20;99.90
6210;DHT22;3138;52.550;13.148;2022-12-18T12:36:56;-3.30;99.90
6210;DHT22;3138;52.550;13.148;2022-12-18T12:39:31;-3.40;99.90
6210;DHT22;3138;52.550;13.148;2022-12-18T12:42:00;-3.40;99.90
6210;DHT22;3138;52.550;13.148;2022-12-18T12:44:49;-3.40;99.90
6210;DHT22;3138;52.550;13.148;2022-12-18T12:47:23;-3.20;99.90
6210;DHT22;3138;52.550;13.148;2022-12-18T12:49:52;-3.30;99.90
6210;DHT22;3138;52.550;13.148;2022-12-18T12:52:27;-3.40;99.90
6210;DHT22;3138;52.550;13.148;2022-12-18T12:54:55;-3.40;99.90
6210;DHT22;3138;52.550;13.148;2022-12-18T12:57:26;-3.40;99.90
6210;DHT22;3138;52.550;13.148;2022-12-18T12:59:59;-3.40;99.90
6210;DHT22;3138;52.550;13.148;2022-12-18T13:02:33;-3.50;99.90
6210;DHT22;3138;52.550;13.148;2022-12-18T13:05:09;-3.50;99.90
6210;DHT22;3138;52.550;13.148;2022-12-18T13:07:49;-3.50;99.90
6210;DHT22;3138;52.550;13.148;2022-12-18T13:10:32;-3.40;99.90
6210;DHT22;3138;52.550;13.148;2022-12-18T13:13:01;-3.40;99.90
6210;DHT22;3138;52.550;13.148;2022-12-18T13:15:32;-3.30;99.90
6210;DHT22;3138;52.550;13.148;2022-12-18T13:18:10;-3.30;99.90
6210;DHT22;3138;52.550;13.148;2022-12-18T13:20:40;-3.30;99.90
6210;DHT22;3138;52.550;13.148;2022-12-18T13:23:26;-3.10;99.90
6210;DHT22;3138;52.550;13.148;2022-12-18T13:25:54;-3.10;99.90
6210;DHT22;3138;52.550;13.148;2022-12-18T13:28:23;-3.10;99.90
6210;DHT22;3138;52.550;13.148;2022-12-18T13:30:55;-3.20;99.90
6210;DHT22;3138;52.550;13.148;2022-12-18T13:33:41;-3.20;99.90
6210;DHT22;3138;52.550;13.148;2022-12-18T13:36:25;-3.10;99.90
6210;DHT22;3138;52.550;13.148;2022-12-18T13:45:42;-3.30;99.90
6210;DHT22;3138;52.550;13.148;2022-12-18T13:48:19;-3.40;99.90
6210;DHT22;3138;52.550;13.148;2022-12-18T13:50:53;-3.40;99.90
6210;DHT22;3138;52.550;13.148;2022-12-18T13:53:24;-3.40;99.90
6210;DHT22;3138;52.550;13.148;2022-12-18T13:55:53;-3.40;99.90
6210;DHT22;3138;52.550;13.148;2022-12-18T13:58:20;-3.50;99.90
6210;DHT22;3138;52.550;13.148;2022-12-18T14:00:46;-3.60;99.90
6210;DHT22;3138;52.550;13.148;2022-12-18T14:03:19;-3.60;99.90
6210;DHT22;3138;52.550;13.148;2022-12-18T14:05:58;-3.50;99.90
6210;DHT22;3138;52.550;13.148;2022-12-18T14:08:29;-3.50;99.90
6210;DHT22;3138;52.550;13.148;2022-12-18T14:10:59;-3.40;99.90
6210;DHT22;3138;52.550;13.148;2022-12-18T14:13:30;-3.40;99.90
6210;DHT22;3138;52.550;13.148;2022-12-18T14:15:57;-3.50;99.90
6210;DHT22;3138;52.550;13.148;2022-12-18T14:18:31;-3.60;99.90
6210;DHT22;3138;52.550;13.148;2022-12-18T14:21:02;-3.60;99.90
6210;DHT22;3138;52.550;13.148;2022-12-18T14:23:32;-3.70;99.90
6210;DHT22;3138;52.550;13.148;2022-12-18T14:26:00;-3.60;99.90
6210;DHT22;3138;52.550;13.148;2022-12-18T14:28:28;-3.60;99.90
6210;DHT22;3138;52.550;13.148;2022-12-18T14:30:55;-3.60;99.90
6210;DHT22;3138;52.550;13.148;2022-12-18T14:33:24;-3.60;99.90
6210;DHT22;3138;52.550;13.148;2022-12-18T14:36:00;-3.80;99.90
6210;DHT22;3138;52.550;13.148;2022-12-18T14:38:29;-3.90;99.90
6210;DHT22;3138;52.550;13.148;2022-12-18T14:40:58;-3.90;99.90
6210;DHT22;3138;52.550;13.148;2022-12-18T14:43:26;-3.90;99.90
6210;DHT22;3138;52.550;13.148;2022-12-18T14:45:53;-3.80;99.90
6210;DHT22;3138;52.550;13.148;2022-12-18T14:48:22;-3.80;99.90
6210;DHT22;3138;52.550;13.148;2022-12-18T14:51:02;-3.90;99.90
6210;DHT22;3138;52.550;13.148;2022-12-18T14:53:34;-3.80;99.90
6210;DHT22;3138;52.550;13.148;2022-12-18T14:56:02;-3.80;99.90
6210;DHT22;3138;52.550;13.148;2022-12-18T14:58:30;-3.80;99.90
6210;DHT22;3138;52.550;13.148;2022-12-18T15:00:57;-3.80;99.90
6210;DHT22;3138;52.550;13.148;2022-12-18T15:03:23;-3.80;99.90
6210;DHT22;3138;52.550;13.148;2022-12-18T15:05:51;-3.80;99.90
6210;DHT22;3138;52.550;13.148;2022-12-18T15:08:36;-3.80;99.90
6210;DHT22;3138;52.550;13.148;2022-12-18T15:11:03;-3.90;99.90
6210;DHT22;3138;52.550;13.148;2022-12-18T15:13:49;-3.80;99.90
6210;DHT22;3138;52.550;13.148;2022-12-18T15:16:17;-3.80;99.90
6210;DHT22;3138;52.550;13.148;2022-12-18T15:18:44;-3.80;99.90
6210;DHT22;3138;52.550;13.148;2022-12-18T15:21:17;-3.80;99.90
6210;DHT22;3138;52.550;13.148;2022-12-18T15:23:48;-3.90;99.90
6210;DHT22;3138;52.550;13.148;2022-12-18T15:26:17;-3.90;99.90
6210;DHT22;3138;52.550;13.148;2022-12-18T15:28:46;-4.00;99.90
6210;DHT22;3138;52.550;13.148;2022-12-18T15:31:23;-4.00;99.90
6210;DHT22;3138;52.550;13.148;2022-12-18T15:34:11;-4.00;99.90
6210;DHT22;3138;52.550;13.148;2022-12-18T15:36:39;-3.90;99.90
6210;DHT22;3138;52.550;13.148;2022-12-18T15:39:11;-3.90;99.90
6210;DHT22;3138;52.550;13.148;2022-12-18T15:41:38;-3.80;99.90
6210;DHT22;3138;52.550;13.148;2022-12-18T15:44:22;-3.90;99.90
6210;DHT22;3138;52.550;13.148;2022-12-18T15:46:48;-3.90;99.90
6210;DHT22;3138;52.550;13.148;2022-12-18T15:49:15;-3.80;99.90
6210;DHT22;3138;52.550;13.148;2022-12-18T15:51:42;-3.80;99.90
6210;DHT22;3138;52.550;13.148;2022-12-18T15:54:11;-3.80;99.90
6210;DHT22;3138;52.550;13.148;2022-12-18T15:56:41;-3.90;99.90
6210;DHT22;3138;52.550;13.148;2022-12-18T15:59:25;-4.00;99.90
6210;DHT22;3138;52.550;13.148;2022-12-18T16:01:52;-4.10;99.90
6210;DHT22;3138;52.550;13.148;2022-12-18T16:04:20;-4.20;99.90
6210;DHT22;3138;52.550;13.148;2022-12-18T16:06:47;-4.10;99.90
6210;DHT22;3138;52.550;13.148;2022-12-18T16:09:16;-4.10;99.90
6210;DHT22;3138;52.550;13.148;2022-12-18T16:11:43;-4.10;99.90